createdAt,value
2023-09-09T00:00:11.622Z,4.72
2023-09-09T00:02:43.022Z,5.72
2023-09-09T00:05:11.881Z,5.18
2023-09-09T00:07:40.349Z,4.85
2023-09-09T00:10:09.988Z,5.47
2023-09-09T00:12:38.541Z,5.18
2023-09-09T00:15:10.107Z,5.80
2023-09-09T00:17:38.783Z,7.97
2023-09-09T00:20:10.885Z,7.30
2023-09-09T00:22:40.051Z,6.53
2023-09-09T00:25:09.502Z,5.75
2023-09-09T00:27:38.099Z,6.53
2023-09-09T00:30:09.612Z,6.20
2023-09-09T00:32:38.336Z,6.75
2023-09-09T00:35:07.392Z,6.25
2023-09-09T00:37:36.258Z,5.95
2023-09-09T00:40:06.854Z,6.30
2023-09-09T00:42:35.906Z,6.03
2023-09-09T00:45:04.609Z,6.00
2023-09-09T00:47:36.153Z,5.97
2023-09-09T00:50:07.303Z,6.45
2023-09-09T00:52:37.693Z,6.35
2023-09-09T00:55:06.818Z,6.38
2023-09-09T00:57:35.705Z,6.72
2023-09-09T01:00:10.590Z,6.00
2023-09-09T01:02:41.429Z,6.03
2023-09-09T01:05:11.700Z,5.32
2023-09-09T01:07:47.629Z,5.90
2023-09-09T01:10:19.281Z,6.03
2023-09-09T01:12:47.991Z,6.63
2023-09-09T01:15:16.600Z,5.95
2023-09-09T01:17:46.975Z,6.55
2023-09-09T01:20:17.241Z,7.70
2023-09-09T01:22:50.085Z,7.85
2023-09-09T01:25:17.972Z,8.02
2023-09-09T01:27:47.637Z,6.50
2023-09-09T01:30:17.093Z,7.07
2023-09-09T01:32:45.616Z,6.35
2023-09-09T01:35:14.262Z,5.75
2023-09-09T01:37:42.960Z,7.13
2023-09-09T01:40:14.288Z,7.05
2023-09-09T01:42:43.048Z,7.43
2023-09-09T01:45:13.539Z,7.60
2023-09-09T01:47:42.365Z,7.30
2023-09-09T01:50:11.678Z,6.30
2023-09-09T01:52:40.302Z,5.95
2023-09-09T01:55:09.416Z,6.43
2023-09-09T01:57:39.367Z,5.60
2023-09-09T02:00:09.519Z,5.80
2023-09-09T02:02:45.100Z,6.38
2023-09-09T02:05:13.792Z,4.90
2023-09-09T02:07:42.293Z,6.80
2023-09-09T02:10:13.844Z,6.80
2023-09-09T02:12:44.274Z,6.18
2023-09-09T02:15:14.686Z,5.78
2023-09-09T02:17:43.505Z,5.15
2023-09-09T02:20:12.429Z,5.32
2023-09-09T02:22:41.059Z,5.10
2023-09-09T02:25:10.415Z,4.75
2023-09-09T02:27:39.045Z,4.55
2023-09-09T02:30:10.194Z,4.32
2023-09-09T02:32:40.714Z,4.50
2023-09-09T02:35:11.933Z,5.15
2023-09-09T02:37:40.802Z,4.50
2023-09-09T02:40:10.845Z,4.88
2023-09-09T02:42:39.492Z,4.82
2023-09-09T02:45:10.981Z,5.30
2023-09-09T02:47:40.578Z,5.28
2023-09-09T02:50:10.376Z,4.68
2023-09-09T02:52:39.025Z,5.18
2023-09-09T02:55:08.538Z,5.35
2023-09-09T02:57:37.275Z,4.97
2023-09-09T03:00:09.306Z,4.95
2023-09-09T03:02:39.839Z,5.88
2023-09-09T03:05:09.338Z,6.47
2023-09-09T03:07:38.263Z,5.20
2023-09-09T03:10:08.406Z,4.90
2023-09-09T03:12:37.208Z,5.50
2023-09-09T03:15:07.102Z,5.22
2023-09-09T03:17:36.180Z,5.05
2023-09-09T03:20:10.442Z,5.18
2023-09-09T03:22:39.252Z,4.93
2023-09-09T03:25:09.846Z,4.90
2023-09-09T03:27:38.784Z,5.82
2023-09-09T03:30:10.731Z,6.40
2023-09-09T03:32:39.668Z,5.68
2023-09-09T03:35:11.623Z,5.70
2023-09-09T03:37:40.296Z,6.05
2023-09-09T03:40:09.893Z,5.50
2023-09-09T03:42:40.644Z,6.60
2023-09-09T03:45:11.726Z,6.83
2023-09-09T03:47:40.813Z,7.63
2023-09-09T03:50:11.704Z,5.97
2023-09-09T03:52:40.486Z,6.57
2023-09-09T03:55:09.700Z,7.22
2023-09-09T03:57:38.346Z,7.30
2023-09-09T04:00:10.616Z,6.68
2023-09-09T04:02:41.715Z,6.53
2023-09-09T04:05:15.233Z,6.75
2023-09-09T04:07:45.781Z,7.15
2023-09-09T04:10:17.366Z,6.55
2023-09-09T04:12:46.176Z,7.03
2023-09-09T04:15:14.936Z,7.32
2023-09-09T04:17:43.916Z,7.18
2023-09-09T04:20:14.347Z,7.47
2023-09-09T04:22:43.005Z,7.25
2023-09-09T04:25:11.633Z,6.50
2023-09-09T04:27:40.495Z,8.05
2023-09-09T04:30:10.468Z,6.55
2023-09-09T04:32:39.324Z,8.25
2023-09-09T04:35:08.756Z,8.00
2023-09-09T04:37:39.072Z,7.78
2023-09-09T04:40:10.670Z,9.10
2023-09-09T04:42:39.520Z,8.70
2023-09-09T04:45:10.074Z,8.57
2023-09-09T04:50:08.618Z,8.18
2023-09-09T04:52:38.751Z,7.93
2023-09-09T04:55:07.752Z,8.80
2023-09-09T04:57:36.549Z,7.80
2023-09-09T05:00:08.409Z,7.57
2023-09-09T05:02:39.065Z,7.78
2023-09-09T05:05:09.615Z,8.23
2023-09-09T05:07:40.708Z,7.82
2023-09-09T05:10:10.916Z,7.50
2023-09-09T05:12:39.791Z,7.95
2023-09-09T05:15:11.653Z,6.45
2023-09-09T05:17:41.218Z,6.75
2023-09-09T05:20:11.070Z,5.80
2023-09-09T05:22:41.366Z,5.67
2023-09-09T05:25:10.584Z,5.05
2023-09-09T05:27:39.367Z,4.45
2023-09-09T05:30:09.366Z,4.68
2023-09-09T05:32:38.052Z,5.60
2023-09-09T05:35:07.524Z,5.82
2023-09-09T05:37:36.115Z,7.32
2023-09-09T05:40:07.203Z,7.13
2023-09-09T05:42:35.997Z,7.18
2023-09-09T05:45:05.832Z,8.02
2023-09-09T05:47:35.633Z,7.00
2023-09-09T05:50:06.999Z,8.10
2023-09-09T05:52:36.581Z,8.05
2023-09-09T05:55:09.766Z,8.27
2023-09-09T05:57:39.450Z,6.65
2023-09-09T06:00:10.626Z,7.82
2023-09-09T06:02:45.253Z,8.05
2023-09-09T06:05:15.373Z,7.25
2023-09-09T06:07:44.430Z,7.68
2023-09-09T06:10:14.794Z,8.43
2023-09-09T06:12:43.809Z,8.05
2023-09-09T06:15:12.775Z,7.38
2023-09-09T06:17:42.994Z,7.82
2023-09-09T06:20:15.503Z,7.55
2023-09-09T06:22:44.792Z,7.82
2023-09-09T06:25:15.066Z,7.43
2023-09-09T06:27:44.999Z,7.72
2023-09-09T06:30:14.123Z,7.25
2023-09-09T06:32:42.995Z,6.03
2023-09-09T06:35:11.825Z,5.55
2023-09-09T06:37:40.405Z,5.80
2023-09-09T06:40:10.028Z,5.45
2023-09-09T06:42:40.068Z,5.38
2023-09-09T06:45:10.045Z,5.50
2023-09-09T06:47:38.773Z,5.90
2023-09-09T06:50:08.435Z,5.38
2023-09-09T06:52:39.722Z,5.40
2023-09-09T06:55:09.292Z,5.18
2023-09-09T06:57:37.824Z,5.60
2023-09-09T07:00:10.857Z,4.93
2023-09-09T07:02:40.741Z,5.47
2023-09-09T07:05:09.937Z,5.38
2023-09-09T07:07:42.887Z,6.10
2023-09-09T07:10:12.515Z,5.93
2023-09-09T07:12:43.112Z,5.60
2023-09-09T07:15:13.388Z,5.20
2023-09-09T07:17:44.924Z,4.70
2023-09-09T07:20:13.851Z,5.10
2023-09-09T07:22:42.391Z,4.65
2023-09-09T07:25:11.913Z,4.18
2023-09-09T07:27:40.496Z,4.78
2023-09-09T07:30:11.833Z,4.13
2023-09-09T07:32:42.036Z,3.55
2023-09-09T07:35:11.172Z,4.20
2023-09-09T07:37:40.012Z,4.10
2023-09-09T07:40:10.127Z,4.10
2023-09-09T07:42:38.721Z,4.03
2023-09-09T07:45:08.460Z,3.50
2023-09-09T07:47:37.255Z,3.55
2023-09-09T07:50:09.312Z,3.63
2023-09-09T07:52:38.107Z,3.63
2023-09-09T07:55:07.441Z,3.47
2023-09-09T07:57:36.528Z,3.50
2023-09-09T08:00:09.170Z,3.60
2023-09-09T08:02:40.696Z,3.53
2023-09-09T08:05:11.375Z,3.70
2023-09-09T08:07:40.080Z,3.15
2023-09-09T08:10:11.580Z,3.38
2023-09-09T08:12:40.263Z,3.33
2023-09-09T08:15:11.383Z,3.03
2023-09-09T08:17:40.521Z,3.67
2023-09-09T08:20:11.514Z,3.47
2023-09-09T08:22:40.244Z,2.92
2023-09-09T08:25:09.463Z,3.17
2023-09-09T08:27:38.225Z,2.85
2023-09-09T08:30:07.730Z,3.47
2023-09-09T08:32:36.499Z,3.45
2023-09-09T08:35:05.410Z,3.42
2023-09-09T08:37:35.665Z,3.30
2023-09-09T08:40:05.341Z,3.13
2023-09-09T08:42:46.337Z,3.05
2023-09-09T08:45:22.140Z,3.00
2023-09-09T08:47:52.846Z,2.78
2023-09-09T08:50:27.571Z,2.72
2023-09-09T08:53:01.465Z,2.72
2023-09-09T08:55:30.438Z,3.20
2023-09-09T08:57:59.103Z,3.20
2023-09-09T09:00:34.779Z,2.53
2023-09-09T09:03:03.988Z,2.78
2023-09-09T09:05:34.048Z,3.40
2023-09-09T09:08:04.861Z,2.85
2023-09-09T09:10:33.793Z,2.55
2023-09-09T09:13:05.014Z,2.95
2023-09-09T09:15:37.447Z,2.63
2023-09-09T09:18:06.752Z,2.40
2023-09-09T09:20:36.102Z,3.17
2023-09-09T09:23:07.159Z,2.90
2023-09-09T09:25:39.177Z,2.72
2023-09-09T09:28:08.195Z,3.03
2023-09-09T09:30:37.569Z,2.92
2023-09-09T09:33:06.878Z,2.33
2023-09-09T09:35:38.395Z,2.45
2023-09-09T09:38:13.208Z,2.22
2023-09-09T09:40:42.073Z,2.47
2023-09-09T09:43:20.027Z,2.50
2023-09-09T09:45:49.087Z,2.88
2023-09-09T09:48:28.279Z,2.80
2023-09-09T09:50:57.074Z,2.50
2023-09-09T09:53:27.891Z,2.55
2023-09-09T09:55:58.352Z,2.42
2023-09-09T09:58:31.081Z,2.22
2023-09-09T10:01:03.951Z,1.88
2023-09-09T10:03:42.785Z,2.05
2023-09-09T10:06:14.657Z,2.38
2023-09-09T10:08:48.876Z,1.95
2023-09-09T10:11:22.485Z,2.05
2023-09-09T10:13:58.966Z,2.35
2023-09-09T10:16:29.768Z,1.98
2023-09-09T10:18:59.908Z,2.30
2023-09-09T10:21:41.423Z,2.10
2023-09-09T10:24:13.601Z,2.42
2023-09-09T10:26:42.805Z,2.60
2023-09-09T10:29:11.947Z,2.42
2023-09-09T10:31:43.783Z,2.15
2023-09-09T10:34:14.635Z,2.17
2023-09-09T10:36:59.538Z,2.70
2023-09-09T10:39:33.882Z,2.55
2023-09-09T10:42:03.124Z,2.25
2023-09-09T10:44:31.696Z,2.60
2023-09-09T10:47:00.581Z,2.35
2023-09-09T10:49:32.285Z,1.95
2023-09-09T10:52:04.695Z,2.65
2023-09-09T10:54:36.442Z,2.47
2023-09-09T10:57:05.569Z,2.40
2023-09-09T10:59:34.555Z,2.28
2023-09-09T11:02:21.172Z,1.92
2023-09-09T11:05:00.525Z,2.30
2023-09-09T11:07:41.322Z,2.00
2023-09-09T11:10:12.045Z,2.38
2023-09-09T11:12:54.308Z,2.42
2023-09-09T11:15:27.008Z,2.60
2023-09-09T11:17:56.099Z,2.17
2023-09-09T11:20:26.453Z,2.13
2023-09-09T11:22:55.204Z,2.35
2023-09-09T11:25:25.613Z,1.98
2023-09-09T11:27:55.725Z,1.77
2023-09-09T11:30:26.796Z,2.20
2023-09-09T11:32:55.659Z,1.98
2023-09-09T11:35:25.453Z,2.17
2023-09-09T11:38:04.191Z,1.63
2023-09-09T11:40:34.625Z,2.05
2023-09-09T11:43:03.924Z,2.25
2023-09-09T11:45:36.355Z,2.10
2023-09-09T11:48:06.048Z,1.85
2023-09-09T11:50:41.669Z,2.10
2023-09-09T11:53:11.031Z,1.50
2023-09-09T11:55:41.431Z,2.00
2023-09-09T11:58:10.081Z,2.38
2023-09-09T12:00:38.736Z,1.80
2023-09-09T12:03:07.256Z,1.50
2023-09-09T12:05:36.332Z,2.22
2023-09-09T12:08:05.725Z,1.58
2023-09-09T12:10:37.932Z,1.85
2023-09-09T12:13:08.560Z,1.95
2023-09-09T12:18:12.679Z,1.60
2023-09-09T12:21:02.714Z,1.90
2023-09-09T12:23:32.394Z,1.48
2023-09-09T12:26:10.186Z,1.60
2023-09-09T12:28:40.437Z,1.63
2023-09-09T12:31:09.367Z,1.27
2023-09-09T12:33:42.504Z,2.13
2023-09-09T12:36:18.987Z,1.58
2023-09-09T12:38:50.264Z,1.52
2023-09-09T12:41:20.918Z,1.60
2023-09-09T12:46:27.303Z,1.77
2023-09-09T12:48:58.283Z,1.52
2023-09-09T12:51:30.304Z,1.60
2023-09-09T12:53:59.687Z,1.63
2023-09-09T12:56:29.787Z,1.30
2023-09-09T12:58:59.730Z,1.67
2023-09-09T13:01:28.243Z,1.65
2023-09-09T13:03:57.103Z,1.67
2023-09-09T13:06:25.677Z,1.60
2023-09-09T13:08:54.221Z,1.88
2023-09-09T13:11:23.416Z,2.28
2023-09-09T13:13:57.031Z,1.63
2023-09-09T13:16:37.578Z,1.90
2023-09-09T13:21:34.447Z,2.03
2023-09-09T13:24:02.946Z,1.70
2023-09-09T13:26:31.601Z,1.83
2023-09-09T13:29:00.210Z,2.03
2023-09-09T13:31:28.915Z,1.70
2023-09-09T13:33:58.823Z,1.77
2023-09-09T13:36:28.132Z,1.73
2023-09-09T13:38:56.831Z,1.67
2023-09-09T13:41:30.164Z,2.03
2023-09-09T13:43:58.844Z,2.10
2023-09-09T13:46:27.514Z,2.08
2023-09-09T13:48:56.065Z,1.70
2023-09-09T13:51:28.543Z,2.05
2023-09-09T13:53:58.764Z,1.65
2023-09-09T13:56:27.286Z,1.70
2023-09-09T13:58:57.302Z,1.80
2023-09-09T14:01:26.424Z,1.77
2023-09-09T14:03:56.017Z,2.22
2023-09-09T14:06:27.448Z,2.00
2023-09-09T14:08:56.043Z,2.05
2023-09-09T14:11:24.707Z,2.67
2023-09-09T14:13:53.414Z,12.75
2023-09-09T14:16:21.929Z,72.55
2023-09-09T14:18:50.596Z,61.10
2023-09-09T14:21:20.500Z,103.15
2023-09-09T14:23:50.624Z,346.30
2023-09-09T14:26:20.489Z,32.83
2023-09-09T14:28:49.046Z,302.90
2023-09-09T14:31:17.641Z,681.25
2023-09-09T14:33:46.079Z,479.70
2023-09-09T14:36:15.448Z,434.02
2023-09-09T14:38:43.910Z,543.83
2023-09-09T14:41:14.164Z,87.60
2023-09-09T14:43:42.718Z,224.45
2023-09-09T14:46:11.272Z,119.05
2023-09-09T14:48:57.254Z,67.60
2023-09-09T14:51:26.188Z,185.85
2023-09-09T14:53:54.894Z,30.70
2023-09-09T14:56:24.873Z,56.13
2023-09-09T14:58:53.308Z,65.75
2023-09-09T15:01:21.933Z,35.85
2023-09-09T15:03:50.588Z,66.63
2023-09-09T15:06:19.166Z,25.92
2023-09-09T15:08:47.642Z,27.40
2023-09-09T15:11:16.268Z,15.57
2023-09-09T15:13:48.450Z,8.13
2023-09-09T15:16:21.639Z,5.50
2023-09-09T15:18:50.658Z,4.97
2023-09-09T15:21:19.340Z,4.05
2023-09-09T15:23:47.980Z,3.40
2023-09-09T15:26:16.948Z,2.60
2023-09-09T15:28:46.986Z,2.38
2023-09-09T15:31:15.641Z,2.85
2023-09-09T15:33:44.277Z,2.83
2023-09-09T15:36:12.732Z,4.53
2023-09-09T15:38:42.658Z,4.80
2023-09-09T15:41:11.301Z,5.80
2023-09-09T15:43:40.045Z,14.30
2023-09-09T15:46:09.945Z,15.82
2023-09-09T15:48:38.821Z,13.82
2023-09-09T15:51:07.992Z,9.45
2023-09-09T15:53:36.681Z,7.30
2023-09-09T15:56:12.666Z,6.50
2023-09-09T15:58:42.252Z,2.63
2023-09-09T16:01:12.596Z,3.92
2023-09-09T16:03:43.323Z,5.60
2023-09-09T16:08:42.239Z,2.90
2023-09-09T16:13:39.775Z,3.00
2023-09-09T16:16:09.873Z,2.83
2023-09-09T16:18:42.379Z,3.15
2023-09-09T16:21:11.456Z,2.80
2023-09-09T16:23:40.032Z,2.88
2023-09-09T16:26:08.827Z,2.83
2023-09-09T16:28:37.558Z,2.53
2023-09-09T16:31:06.982Z,2.95
2023-09-09T16:33:35.745Z,2.63
2023-09-09T16:36:06.944Z,3.38
2023-09-09T16:38:36.841Z,2.95
2023-09-09T16:41:05.736Z,2.22
2023-09-09T16:43:36.120Z,2.40
2023-09-09T16:46:04.965Z,2.55
2023-09-09T16:48:33.632Z,2.53
2023-09-09T16:51:02.276Z,2.80
2023-09-09T16:53:32.336Z,2.30
2023-09-09T16:56:03.284Z,3.35
2023-09-09T16:58:32.344Z,2.67
2023-09-09T17:01:01.111Z,2.75
2023-09-09T17:03:30.000Z,2.80
2023-09-09T17:06:00.354Z,2.65
2023-09-09T17:08:29.668Z,3.10
2023-09-09T17:10:59.951Z,2.80
2023-09-09T17:13:28.744Z,3.42
2023-09-09T17:15:59.469Z,3.35
2023-09-09T17:20:59.117Z,3.03
2023-09-09T17:23:29.354Z,2.97
2023-09-09T17:26:02.595Z,3.17
2023-09-09T17:28:31.526Z,3.85
2023-09-09T17:31:00.209Z,3.42
2023-09-09T17:33:28.938Z,2.90
2023-09-09T17:35:58.614Z,3.53
2023-09-09T17:38:27.355Z,3.63
2023-09-09T17:40:56.033Z,3.58
2023-09-09T17:43:26.073Z,3.78
2023-09-09T17:45:54.734Z,3.50
2023-09-09T17:48:24.550Z,3.15
2023-09-09T17:50:53.193Z,3.50
2023-09-09T17:53:21.874Z,3.35
2023-09-09T17:55:50.366Z,3.38
2023-09-09T17:58:19.391Z,3.25
2023-09-09T18:00:49.755Z,3.17
2023-09-09T18:03:18.615Z,3.80
2023-09-09T18:05:47.372Z,3.72
2023-09-09T18:08:16.046Z,3.83
2023-09-09T18:10:45.502Z,3.40
2023-09-09T18:13:14.290Z,1.92
2023-09-09T18:15:43.651Z,1.83
2023-09-09T18:18:13.994Z,2.60
2023-09-09T18:20:42.789Z,2.65
2023-09-09T18:23:11.722Z,2.75
2023-09-09T18:25:40.606Z,3.15
2023-09-09T18:28:10.586Z,3.35
2023-09-09T18:30:45.685Z,5.13
2023-09-09T18:33:16.255Z,4.82
2023-09-09T18:35:45.087Z,4.72
2023-09-09T18:38:13.623Z,4.38
2023-09-09T18:40:42.305Z,3.75
2023-09-09T18:43:11.011Z,4.28
2023-09-09T18:45:39.792Z,4.38
2023-09-09T18:48:08.932Z,4.28
2023-09-09T18:50:39.133Z,4.18
2023-09-09T18:53:08.577Z,3.70
2023-09-09T18:55:37.870Z,4.13
2023-09-09T18:58:06.534Z,3.65
2023-09-09T19:00:35.161Z,3.33
2023-09-09T19:03:04.499Z,3.85
2023-09-09T19:05:34.280Z,4.15
2023-09-09T19:08:04.614Z,3.40
2023-09-09T19:10:33.634Z,3.67
2023-09-09T19:13:02.936Z,3.20
2023-09-09T19:15:31.696Z,3.35
2023-09-09T19:18:00.373Z,3.13
2023-09-09T19:20:29.080Z,3.67
2023-09-09T19:22:57.786Z,3.45
2023-09-09T19:25:28.476Z,3.30
2023-09-09T19:27:57.132Z,3.88
2023-09-09T19:30:27.259Z,3.55
2023-09-09T19:32:56.056Z,4.07
2023-09-09T19:35:25.094Z,4.93
2023-09-09T19:37:55.528Z,3.53
2023-09-09T19:40:24.589Z,3.42
2023-09-09T19:42:54.872Z,4.25
2023-09-09T19:45:23.458Z,4.50
2023-09-09T19:47:52.108Z,4.05
2023-09-09T19:50:21.176Z,3.42
2023-09-09T19:52:49.801Z,3.85
2023-09-09T19:55:18.686Z,3.88
2023-09-09T19:57:47.116Z,4.03
2023-09-09T20:00:18.374Z,4.68
2023-09-09T20:05:33.491Z,3.85
2023-09-09T20:08:04.447Z,4.45
2023-09-09T20:10:33.083Z,3.20
2023-09-09T20:13:02.916Z,3.50
2023-09-09T20:15:33.065Z,3.83
2023-09-09T20:18:01.570Z,3.55
2023-09-09T20:20:30.095Z,4.05
2023-09-09T20:22:58.627Z,3.50
2023-09-09T20:25:27.319Z,3.30
2023-09-09T20:27:55.794Z,3.83
2023-09-09T20:30:26.466Z,3.80
2023-09-09T20:32:56.534Z,3.70
2023-09-09T20:35:34.059Z,3.53
2023-09-09T20:38:05.661Z,3.80
2023-09-09T20:40:34.983Z,3.95
2023-09-09T20:43:03.937Z,3.13
2023-09-09T20:45:32.632Z,3.42
2023-09-09T20:48:02.521Z,3.45
2023-09-09T20:50:34.501Z,3.33
2023-09-09T20:53:03.615Z,3.63
2023-09-09T20:55:34.434Z,3.90
2023-09-09T21:00:31.492Z,2.95
2023-09-09T21:03:01.900Z,3.70
2023-09-09T21:05:30.683Z,4.35
2023-09-09T21:07:59.171Z,4.03
2023-09-09T21:10:28.159Z,4.03
2023-09-09T21:12:56.782Z,3.70
2023-09-09T21:15:25.613Z,4.50
2023-09-09T21:17:54.230Z,4.07
2023-09-09T21:20:24.443Z,3.05
2023-09-09T21:22:53.033Z,3.50
2023-09-09T21:25:29.542Z,2.85
2023-09-09T21:27:58.543Z,3.00
2023-09-09T21:30:28.693Z,3.30
2023-09-09T21:32:58.607Z,2.75
2023-09-09T21:35:28.599Z,2.58
2023-09-09T21:37:57.269Z,3.50
2023-09-09T21:40:25.911Z,4.05
2023-09-09T21:42:54.489Z,3.67
2023-09-09T21:45:24.552Z,3.42
2023-09-09T21:47:53.553Z,3.17
2023-09-09T21:50:22.256Z,3.40
2023-09-09T21:52:53.098Z,3.53
2023-09-09T21:55:21.769Z,4.00
2023-09-09T21:57:50.278Z,3.47
2023-09-09T22:00:21.528Z,3.20
2023-09-09T22:02:51.939Z,3.50
2023-09-09T22:07:49.850Z,3.20
2023-09-09T22:10:20.026Z,3.08
2023-09-09T22:12:48.459Z,3.13
2023-09-09T22:15:17.628Z,3.25
2023-09-09T22:17:46.219Z,3.85
2023-09-09T22:20:16.983Z,3.60
2023-09-09T22:22:45.674Z,3.35
2023-09-09T22:25:15.366Z,3.75
2023-09-09T22:27:45.292Z,3.50
2023-09-09T22:30:14.622Z,2.92
2023-09-09T22:32:43.244Z,3.88
2023-09-09T22:35:11.729Z,3.85
2023-09-09T22:37:40.774Z,3.63
2023-09-09T22:40:10.966Z,3.65
2023-09-09T22:42:39.704Z,3.17
2023-09-09T22:45:10.054Z,3.17
2023-09-09T22:47:39.256Z,2.67
2023-09-09T22:50:09.236Z,3.38
2023-09-09T22:52:37.887Z,3.70
2023-09-09T22:55:07.085Z,3.97
2023-09-09T22:57:35.865Z,3.00
2023-09-09T23:00:06.846Z,3.15
2023-09-09T23:02:36.897Z,3.40
2023-09-09T23:05:06.309Z,2.75
2023-09-09T23:07:49.824Z,4.10
2023-09-09T23:10:19.080Z,3.28
2023-09-09T23:12:47.727Z,2.55
2023-09-09T23:15:16.550Z,4.32
2023-09-09T23:17:46.425Z,3.00
2023-09-09T23:20:15.044Z,3.93
2023-09-09T23:22:45.666Z,3.15
2023-09-09T23:27:44.782Z,3.05
2023-09-09T23:30:14.168Z,3.58
2023-09-09T23:32:43.011Z,3.20
2023-09-09T23:35:13.117Z,3.20
2023-09-09T23:37:41.949Z,3.22
2023-09-09T23:40:12.516Z,3.22
2023-09-09T23:42:41.269Z,3.63
2023-09-09T23:45:10.210Z,3.08
2023-09-09T23:47:38.866Z,3.95
2023-09-09T23:50:08.449Z,3.20
2023-09-09T23:52:38.492Z,3.08
2023-09-09T23:55:08.162Z,2.90
2023-09-09T23:57:36.940Z,3.08
